Time;durP1;ratioP1;P1;durP2;ratioP2;P2;SDS_P1;SDS_P2;PMS_P1;PMS_P2;Temp;Humidity;BMP_temperature;BMP_pressure;BME280_temperature;BME280_humidity;BME280_pressure;Samples;Min_cycle;Max_cycle;Signal;HPM_P1;HPM_P2
2022/01/27 00:05:40;;;;;;;46.42;16.98;;;;;;;;;;5079907;28;20047;-74
2022/01/27 00:10:53;;;;;;;48.88;17.40;;;7.10;99.90;;;;;;5099058;28;20100;-74
2022/01/27 00:13:24;;;;;;;46.03;17.88;;;6.30;99.90;;;;;;5110345;28;20388;-75
2022/01/27 00:15:59;;;;;;;48.28;17.60;;;;;;;;;;5088123;28;20036;-75
2022/01/27 00:18:25;;;;;;;40.70;16.38;;;;;;;;;;5108599;28;20043;-75
2022/01/27 00:20:51;;;;;;;44.78;16.33;;;;;;;;;;5088706;28;20081;-74
2022/01/27 00:23:18;;;;;;;47.63;16.88;;;;;;;;;;5093381;28;20040;-74
2022/01/27 00:25:44;;;;;;;51.28;16.95;;;;;;;;;;5106615;28;20208;-75
2022/01/27 00:28:10;;;;;;;44.25;15.48;;;;;;;;;;5091773;28;20032;-75
2022/01/27 00:30:37;;;;;;;40.92;15.82;;;6.30;99.90;;;;;;5075253;28;20047;-74
2022/01/27 00:33:04;;;;;;;44.08;15.85;;;6.30;99.90;;;;;;5109811;28;20104;-74
2022/01/27 00:35:30;;;;;;;40.65;14.88;;;6.20;99.90;;;;;;5108901;28;20032;-75
2022/01/27 00:37:57;;;;;;;44.75;16.55;;;;;;;;;;5092544;28;20032;-74
2022/01/27 00:40:23;;;;;;;37.97;15.27;;;;;;;;;;5074825;28;20067;-74
2022/01/27 00:42:49;;;;;;;43.25;16.23;;;;;;;;;;5107757;28;20048;-74
2022/01/27 00:45:15;;;;;;;37.03;14.95;;;;;;;;;;5099253;28;20448;-74
2022/01/27 00:47:42;;;;;;;36.58;15.85;;;;;;;;;;5105905;28;20075;-75
2022/01/27 00:50:08;;;;;;;42.95;16.45;;;;;;;;;;5110215;28;20481;-75
2022/01/27 00:52:41;;;;;;;42.75;17.30;;;;;;;;;;5108403;28;20051;-74
2022/01/27 00:55:09;;;;;;;46.22;18.15;;;6.30;99.90;;;;;;5091603;28;20043;-74
2022/01/27 01:00:17;;;;;;;41.70;17.02;;;6.50;99.90;;;;;;5108726;28;20123;-75
2022/01/27 01:03:05;;;;;;;44.13;18.15;;;;;;;;;;5100625;28;20072;-74
2022/01/27 01:19:24;;;;;;;45.05;17.35;;;6.20;99.90;;;;;;5113498;28;20040;-74
2022/01/27 01:35:46;;;;;;;49.75;18.92;;;5.80;99.90;;;;;;5109948;28;20038;-75
2022/01/27 01:38:12;;;;;;;;;;;;;;;;;;5101385;28;20054;-75
2022/01/27 01:40:38;;;;;;;47.75;18.70;;;;;;;;;;5094405;28;19916;-75
2022/01/27 01:43:05;;;;;;;51.78;18.25;;;;;;;;;;5107025;28;20086;-74
2022/01/27 01:45:34;;;;;;;48.42;19.10;;;6.00;99.90;;;;;;5112675;28;20499;-75
2022/01/27 01:48:00;;;;;;;54.25;19.35;;;;;;;;;;5103387;28;20131;-74
2022/01/27 01:50:27;;;;;;;46.20;18.90;;;;;;;;;;5082511;28;20036;-75
2022/01/27 01:52:53;;;;;;;42.33;19.15;;;;;;;;;;5101712;28;20074;-75
2022/01/27 01:55:19;;;;;;;49.55;20.45;;;;;;;;;;5112858;28;20047;-75
2022/01/27 01:57:45;;;;;;;46.17;19.63;;;;;;;;;;5106422;28;20040;-74
2022/01/27 02:00:13;;;;;;;46.83;17.67;;;6.20;99.90;;;;;;5095261;28;20039;-74
2022/01/27 02:02:40;;;;;;;44.85;18.17;;;5.80;99.90;;;;;;5088660;28;20032;-75
2022/01/27 02:05:06;;;;;;;42.15;19.13;;;6.50;99.90;;;;;;5094047;28;20067;-75
2022/01/27 02:18:06;;;;;;;44.90;19.35;;;;;;;;;;5107002;28;20047;-75
2022/01/27 02:20:34;;;;;;;49.20;20.38;;;6.20;99.90;;;;;;5102562;28;20042;-74
2022/01/27 02:23:00;;;;;;;48.10;19.73;;;;;;;;;;5107567;28;20144;-75
2022/01/27 02:25:26;;;;;;;42.33;18.73;;;;;;;;;;5094925;28;20050;-74
2022/01/27 02:27:57;;;;;;;48.97;20.70;;;6.70;99.90;;;;;;5080178;28;20043;-74
2022/01/27 02:30:23;;;;;;;49.65;21.52;;;;;;;;;;5088432;28;20380;-74
2022/01/27 02:32:52;;;;;;;45.85;20.10;;;5.90;99.90;;;;;;5108206;28;20050;-75
2022/01/27 02:35:18;;;;;;;57.03;19.52;;;;;;;;;;5093334;28;20036;-75
2022/01/27 02:37:44;;;;;;;46.35;20.40;;;;;;;;;;5076852;28;20361;-75
2022/01/27 02:40:12;;;;;;;46.60;18.90;;;;;;;;;;5096975;28;20089;-74
2022/01/27 02:42:38;;;;;;;44.90;19.20;;;;;;;;;;5077192;28;20126;-75
2022/01/27 02:45:04;;;;;;;48.35;20.80;;;;;;;;;;5110413;28;20036;-74
2022/01/27 02:47:31;;;;;;;45.78;18.48;;;6.00;99.90;;;;;;5111394;28;20036;-74
2022/01/27 02:49:57;;;;;;;42.40;18.33;;;;;;;;;;5097266;28;20496;-75
2022/01/27 02:52:23;;;;;;;47.58;19.15;;;;;;;;;;5094304;28;20067;-74
2022/01/27 02:54:49;;;;;;;42.10;19.80;;;;;;;;;;5109940;28;20039;-75
2022/01/27 02:57:16;;;;;;;45.58;19.05;;;;;;;;;;5109585;28;20118;-74
2022/01/27 02:59:42;;;;;;;47.20;17.60;;;;;;;;;;5106370;28;20059;-72
2022/01/27 03:02:07;;;;;;;47.08;19.13;;;6.50;99.90;;;;;;5111454;28;20039;-75
2022/01/27 03:04:34;;;;;;;52.65;18.88;;;;;;;;;;5083300;28;20494;-75
2022/01/27 03:07:03;;;;;;;49.42;18.80;;;6.40;99.90;;;;;;5094221;28;20035;-75
2022/01/27 03:09:30;;;;;;;52.10;17.23;;;;;;;;;;5103911;28;20479;-75
2022/01/27 03:12:07;;;;;;;41.97;16.85;;;5.70;99.90;;;;;;5092424;28;20124;-75
2022/01/27 03:14:34;;;;;;;39.50;17.00;;;;;;;;;;5084180;28;20062;-75
2022/01/27 03:17:01;;;;;;;44.63;17.13;;;;;;;;;;5093835;28;20784;-75
2022/01/27 03:19:27;;;;;;;47.72;17.23;;;;;;;;;;5102012;28;20045;-74
2022/01/27 03:21:54;;;;;;;42.83;16.80;;;;;;;;;;5086195;28;20051;-75
2022/01/27 03:24:24;;;;;;;41.47;16.48;;;6.40;99.90;;;;;;5098096;28;20490;-74
2022/01/27 03:26:51;;;;;;;41.42;15.90;;;6.40;99.90;;;;;;5085741;28;20068;-75
2022/01/27 03:29:18;;;;;;;48.55;17.13;;;;;;;;;;5099014;28;20035;-75
2022/01/27 03:31:47;;;;;;;43.55;16.60;;;6.60;99.90;;;;;;5110807;28;20036;-75
2022/01/27 03:34:14;;;;;;;40.75;15.70;;;6.50;99.90;;;;;;5104757;28;20043;-74
2022/01/27 03:36:40;;;;;;;40.55;15.05;;;;;;;;;;5109436;28;20118;-75
2022/01/27 03:39:08;;;;;;;44.22;15.35;;;6.70;99.90;;;;;;5099141;28;20039;-74
2022/01/27 03:41:35;;;;;;;39.13;14.85;;;;;;;;;;5111084;28;20183;-74
2022/01/27 03:44:02;;;;;;;47.92;16.42;;;5.70;99.90;;;;;;5108926;28;20048;-74
2022/01/27 03:46:28;;;;;;;42.30;14.48;;;;;;;;;;5093242;28;20040;-74
2022/01/27 03:48:55;;;;;;;39.33;14.80;;;;;;;;;;5093257;28;20484;-74
2022/01/27 03:51:22;;;;;;;50.72;14.98;;;;;;;;;;5109011;28;20039;-75
2022/01/27 03:53:48;;;;;;;40.92;14.63;;;;;;;;;;5092028;28;20040;-74
2022/01/27 03:56:14;;;;;;;47.33;15.80;;;;;;;;;;5076542;28;20476;-74
2022/01/27 03:58:40;;;;;;;41.72;14.32;;;;;;;;;;5094737;28;20070;-75
2022/01/27 04:01:06;;;;;;;35.30;15.38;;;;;;;;;;5101484;28;20032;-74
2022/01/27 04:03:36;;;;;;;50.97;14.90;;;6.60;99.90;;;;;;5092254;28;20039;-75
2022/01/27 04:06:09;;;;;;;47.50;14.38;;;;;;;;;;5097187;28;20058;-74
2022/01/27 04:08:37;;;;;;;40.53;13.85;;;6.50;99.90;;;;;;5064897;28;20043;-75
2022/01/27 04:11:05;;;;;;;36.22;13.85;;;6.50;99.90;;;;;;5080397;28;20086;-75
2022/01/27 04:13:31;;;;;;;36.50;14.27;;;;;;;;;;5102332;28;20373;-75
2022/01/27 04:15:57;;;;;;;48.70;14.15;;;;;;;;;;5102660;28;20036;-74
2022/01/27 04:18:23;;;;;;;40.90;13.48;;;;;;;;;;5110311;28;20162;-75
2022/01/27 04:20:49;;;;;;;45.65;15.30;;;;;;;;;;5083138;28;20496;-74
2022/01/27 04:23:17;;;;;;;51.28;14.85;;;;;;;;;;5093293;28;20044;-75
2022/01/27 04:25:43;;;;;;;45.10;14.68;;;;;;;;;;5083799;28;20055;-75
2022/01/27 04:28:13;;;;;;;37.28;14.40;;;;;;;;;;5109035;28;20112;-74
2022/01/27 04:30:39;;;;;;;43.78;14.32;;;;;;;;;;5103681;28;20044;-75
2022/01/27 04:33:06;;;;;;;42.38;15.13;;;6.80;99.90;;;;;;5074840;28;20036;-74
2022/01/27 04:35:36;;;;;;;56.10;16.08;;;;;;;;;;5085334;28;20035;-74
2022/01/27 04:45:49;;;;;;;37.03;12.98;;;;;;;;;;5109116;28;20047;-75
2022/01/27 04:48:18;;;;;;;36.65;13.07;;;;;;;;;;5098273;28;20492;-75
2022/01/27 04:50:44;;;;;;;35.90;13.75;;;;;;;;;;5103592;28;20116;-74
2022/01/27 04:53:36;;;;;;;43.60;14.13;;;;;;;;;;5078871;28;20036;-74
2022/01/27 04:55:59;;;;;;;42.63;13.00;;;;;;;;;;5106578;28;20047;-74
2022/01/27 04:58:32;;;;;;;44.72;13.63;;;;;;;;;;5101843;28;20042;-74
2022/01/27 05:00:59;;;;;;;46.25;13.77;;;;;;;;;;5087483;28;20085;-74
2022/01/27 05:03:49;;;;;;;47.35;13.15;;;;;;;;;;5111223;28;20104;-74
2022/01/27 05:06:15;;;;;;;42.30;13.55;;;;;;;;;;5110844;28;20097;-74
2022/01/27 05:08:42;;;;;;;48.85;13.40;;;;;;;;;;5108298;28;20640;-76
2022/01/27 05:11:25;;;;;;;45.10;14.13;;;;;;;;;;5101366;28;20039;-74
2022/01/27 05:16:35;;;;;;;50.53;14.93;;;;;;;;;;5110346;28;20036;-74
2022/01/27 05:19:02;;;;;;;51.38;14.43;;;;;;;;;;5111884;28;20035;-74
2022/01/27 05:21:28;;;;;;;47.15;15.27;;;;;;;;;;5105436;28;20064;-74
2022/01/27 05:23:54;;;;;;;50.85;13.55;;;;;;;;;;5077935;28;20044;-74
2022/01/27 05:26:20;;;;;;;50.03;14.63;;;;;;;;;;5084446;28;20126;-74
2022/01/27 05:28:46;;;;;;;50.72;14.68;;;;;;;;;;5105444;28;20043;-74
2022/01/27 05:31:12;;;;;;;45.33;14.90;;;;;;;;;;5096667;28;20039;-74
2022/01/27 05:33:38;;;;;;;41.35;14.40;;;;;;;;;;5094309;28;20496;-74
2022/01/27 05:36:04;;;;;;;51.10;14.30;;;7.10;99.90;;;;;;5097048;28;20514;-75
2022/01/27 05:38:30;;;;;;;50.78;13.85;;;;;;;;;;5098089;28;20110;-75
2022/01/27 05:40:56;;;;;;;53.65;15.65;;;;;;;;;;5096455;28;20036;-74
2022/01/27 05:43:22;;;;;;;50.63;14.98;;;;;;;;;;5079061;28;20082;-74
2022/01/27 05:45:49;;;;;;;53.25;16.27;;;;;;;;;;5091407;28;20506;-73
2022/01/27 05:48:15;;;;;;;55.25;16.13;;;;;;;;;;5098928;28;20042;-74
2022/01/27 05:50:41;;;;;;;61.10;17.75;;;;;;;;;;5111474;28;20042;-73
2022/01/27 05:53:07;;;;;;;63.60;16.40;;;;;;;;;;5095901;28;20036;-74
2022/01/27 05:55:32;;;;;;;50.33;15.98;;;5.90;99.90;;;;;;5103786;28;20039;-73
2022/01/27 05:57:58;;;;;;;47.13;16.02;;;;;;;;;;5091977;28;20044;-73
2022/01/27 06:00:25;;;;;;;55.35;15.40;;;;;;;;;;5106949;28;20476;-73
2022/01/27 06:02:51;;;;;;;50.05;16.00;;;;;;;;;;5103506;28;20093;-73
2022/01/27 06:05:17;;;;;;;54.33;15.27;;;;;;;;;;5109662;28;20546;-73
2022/01/27 06:07:43;;;;;;;61.55;15.85;;;;;;;;;;5107429;28;20039;-73
2022/01/27 06:10:09;;;;;;;47.25;15.13;;;7.30;99.90;;;;;;5110747;28;20071;-73
2022/01/27 06:12:47;;;;;;;68.25;18.13;;;6.70;99.90;;;;;;5101944;28;20071;-74
2022/01/27 06:15:13;;;;;;;57.63;17.27;;;;;;;;;;5109294;28;20047;-73
2022/01/27 06:17:40;;;;;;;46.00;16.27;;;;;;;;;;5094312;28;20103;-73
2022/01/27 06:20:06;;;;;;;59.10;15.85;;;7.20;99.90;;;;;;5093376;28;20036;-73
2022/01/27 06:22:32;;;;;;;56.70;15.57;;;;;;;;;;5093296;28;20044;-73
2022/01/27 06:24:58;;;;;;;50.08;15.70;;;;;;;;;;5109214;28;20046;-73
2022/01/27 06:27:25;;;;;;;49.33;15.80;;;;;;;;;;5078483;28;20446;-71
2022/01/27 06:29:51;;;;;;;56.33;14.30;;;;;;;;;;5092931;28;20555;-73
2022/01/27 06:32:17;;;;;;;48.80;15.00;;;;;;;;;;5105238;28;20035;-73
2022/01/27 06:34:43;;;;;;;59.13;15.93;;;;;;;;;;5108847;28;20069;-73
2022/01/27 06:37:09;;;;;;;49.25;14.05;;;;;;;;;;5100107;28;20028;-73
2022/01/27 06:39:35;;;;;;;45.25;14.10;;;;;;;;;;5111511;28;20036;-74
2022/01/27 06:42:02;;;;;;;59.90;14.65;;;6.80;99.90;;;;;;5110091;28;20028;-72
2022/01/27 06:44:29;;;;;;;43.05;13.23;;;;;;;;;;5110244;28;20054;-72
2022/01/27 06:46:54;;;;;;;49.67;15.18;;;7.40;99.90;;;;;;5106881;28;20047;-71
2022/01/27 06:49:20;;;;;;;48.92;14.27;;;6.60;99.90;;;;;;5111578;28;20035;-72
2022/01/27 06:51:46;;;;;;;48.75;14.15;;;;;;;;;;5106765;28;20120;-70
2022/01/27 06:54:13;;;;;;;47.40;14.93;;;;;;;;;;5111752;28;20036;-72
2022/01/27 06:56:39;;;;;;;55.10;13.55;;;7.00;99.90;;;;;;5087757;28;20040;-72
2022/01/27 06:59:06;;;;;;;56.05;14.35;;;;;;;;;;5096470;28;20042;-72
2022/01/27 07:01:32;;;;;;;48.55;13.25;;;;;;;;;;5101109;28;20035;-72
2022/01/27 07:03:58;;;;;;;59.78;14.02;;;;;;;;;;5111264;28;20043;-71
2022/01/27 07:06:24;;;;;;;46.00;12.85;;;;;;;;;;5096730;28;20122;-70
2022/01/27 07:08:50;;;;;;;65.32;13.48;;;;;;;;;;5091334;28;20064;-71
2022/01/27 07:11:16;;;;;;;41.17;12.65;;;;;;;;;;5104136;28;20031;-71
2022/01/27 07:13:42;;;;;;;46.55;11.95;;;;;;;;;;5092608;28;20054;-71
2022/01/27 07:16:08;;;;;;;58.72;13.43;;;;;;;;;;5086880;28;20433;-71
2022/01/27 07:18:34;;;;;;;36.78;11.35;;;;;;;;;;5112617;28;20071;-71
2022/01/27 07:21:01;;;;;;;51.78;11.68;;;;;;;;;;5112954;28;20493;-71
2022/01/27 07:23:27;;;;;;;44.10;11.45;;;;;;;;;;5113108;28;20040;-71
2022/01/27 07:25:53;;;;;;;51.45;12.05;;;;;;;;;;5092185;28;20422;-71
2022/01/27 07:28:19;;;;;;;40.13;10.20;;;;;;;;;;5092551;28;20384;-70
2022/01/27 07:30:45;;;;;;;39.70;10.68;;;;;;;;;;5075869;28;20385;-71
2022/01/27 07:33:11;;;;;;;34.88;9.82;;;;;;;;;;5108069;28;20039;-72
2022/01/27 07:35:37;;;;;;;38.90;9.85;;;;;;;;;;5095388;28;20043;-71
2022/01/27 07:38:07;;;;;;;48.63;9.95;;;;;;;;;;5104692;28;20031;-72
2022/01/27 07:40:33;;;;;;;29.45;8.50;;;7.70;99.90;;;;;;5079579;28;20075;-71
2022/01/27 07:42:59;;;;;;;39.88;9.35;;;;;;;;;;5100309;28;20511;-72
2022/01/27 07:45:25;;;;;;;51.08;10.48;;;7.70;99.90;;;;;;5103644;28;20036;-71
2022/01/27 07:47:51;;;;;;;39.00;10.57;;;;;;;;;;5107444;28;20047;-72
2022/01/27 07:50:17;;;;;;;40.88;8.98;;;;;;;;;;5106069;28;20086;-72
2022/01/27 07:52:43;;;;;;;41.80;10.30;;;;;;;;;;5076539;28;20044;-72
2022/01/27 07:55:10;;;;;;;38.72;8.75;;;7.40;99.90;;;;;;5107334;28;20036;-73
2022/01/27 07:57:36;;;;;;;42.65;10.07;;;;;;;;;;5108661;28;20028;-73
2022/01/27 08:00:04;;;;;;;38.35;9.00;;;7.30;99.90;;;;;;5086620;28;20123;-73
2022/01/27 08:02:30;;;;;;;37.70;8.68;;;;;;;;;;5112861;28;20043;-73
2022/01/27 08:04:56;;;;;;;39.80;8.50;;;;;;;;;;5094247;28;20039;-73
2022/01/27 08:07:22;;;;;;;36.55;8.30;;;;;;;;;;5092336;28;20055;-73
2022/01/27 08:09:49;;;;;;;33.42;8.07;;;;;;;;;;5077846;28;20047;-73
2022/01/27 08:12:15;;;;;;;41.22;9.65;;;;;;;;;;5096310;28;20557;-73
2022/01/27 08:14:41;;;;;;;34.70;8.40;;;7.80;99.90;;;;;;5096113;28;20040;-73
2022/01/27 08:17:07;;;;;;;37.50;8.18;;;6.80;99.90;;;;;;5114857;28;20119;-73
2022/01/27 08:19:34;;;;;;;40.10;8.48;;;;;;;;;;5116436;28;20895;-73
2022/01/27 08:22:00;;;;;;;47.72;8.38;;;;;;;;;;5099224;28;20126;-73
2022/01/27 08:24:26;;;;;;;36.25;7.50;;;;;;;;;;5099288;28;20044;-73
2022/01/27 08:26:58;;;;;;;33.40;7.05;;;;;;;;;;5099611;28;20406;-73
2022/01/27 08:29:34;;;;;;;43.80;7.20;;;;;;;;;;5116214;28;20039;-73
2022/01/27 08:32:02;;;;;;;38.88;8.30;;;;;;;;;;5115132;28;20448;-73
2022/01/27 08:34:41;;;;;;;26.65;7.38;;;7.60;99.90;;;;;;5115608;28;20040;-74
2022/01/27 08:37:17;;;;;;;39.17;7.80;;;8.40;99.90;;;;;;5099492;28;20043;-73
2022/01/27 08:39:43;;;;;;;38.80;7.85;;;;;;;;;;5126488;27;20035;-74
2022/01/27 08:42:10;;;;;;;36.38;6.93;;;;;;;;;;5102963;28;20390;-74
2022/01/27 08:44:36;;;;;;;37.20;7.38;;;8.40;99.90;;;;;;5087680;28;20097;-73
2022/01/27 08:47:03;;;;;;;44.55;8.02;;;;;;;;;;5110757;28;20475;-73
2022/01/27 08:49:29;;;;;;;37.40;6.90;;;;;;;;;;5109787;28;20040;-72
2022/01/27 08:51:57;;;;;;;39.53;7.93;;;7.90;99.90;;;;;;5105200;28;20035;-73
2022/01/27 08:54:24;;;;;;;35.08;6.82;;;;;;;;;;5082210;28;20051;-73
2022/01/27 08:56:50;;;;;;;48.95;7.75;;;;;;;;;;5095185;28;20123;-73
2022/01/27 08:59:16;;;;;;;37.10;7.38;;;;;;;;;;5095151;28;20040;-73
2022/01/27 09:01:43;;;;;;;34.80;9.32;;;7.90;99.90;;;;;;5095182;28;20074;-73
2022/01/27 09:04:09;;;;;;;37.13;7.63;;;;;;;;;;5095163;28;20047;-73
2022/01/27 09:06:35;;;;;;;33.80;6.88;;;;;;;;;;5095027;28;20077;-73
2022/01/27 09:09:02;;;;;;;39.65;7.38;;;8.10;99.90;;;;;;5078100;28;20071;-73
2022/01/27 09:11:30;;;;;;;39.22;7.55;;;;;;;;;;5094993;28;20051;-73
2022/01/27 09:13:57;;;;;;;38.08;7.75;;;;;;;;;;5078398;28;20044;-74
2022/01/27 09:16:27;;;;;;;34.20;6.40;;;;;;;;;;5094872;28;20040;-77
2022/01/27 09:18:54;;;;;;;36.88;8.48;;;8.00;99.90;;;;;;5095143;28;20032;-75
2022/01/27 09:21:24;;;;;;;37.15;7.35;;;;;;;;;;5093474;28;20043;-73
2022/01/27 09:23:51;;;;;;;34.90;6.32;;;;;;;;;;5105106;28;20488;-73
2022/01/27 09:26:39;;;;;;;37.63;6.15;;;;;;;;;;5113195;28;20057;-73
2022/01/27 09:29:05;;;;;;;26.58;6.13;;;;;;;;;;5112985;28;20039;-73
2022/01/27 09:31:32;;;;;;;35.47;7.32;;;;;;;;;;5114644;28;20041;-73
2022/01/27 09:33:58;;;;;;;33.60;6.25;;;;;;;;;;5115032;28;20048;-73
2022/01/27 09:36:24;;;;;;;30.23;6.32;;;;;;;;;;5114950;28;20368;-73
2022/01/27 09:38:50;;;;;;;31.33;5.95;;;;;;;;;;5098089;28;20464;-73
2022/01/27 09:41:21;;;;;;;34.25;6.13;;;8.20;99.90;;;;;;5098149;28;20426;-73
2022/01/27 09:43:51;;;;;;;31.70;6.57;;;8.20;99.90;;;;;;5114565;28;20100;-73
2022/01/27 09:46:19;;;;;;;36.55;5.43;;;;;;;;;;5114800;28;20096;-73
2022/01/27 09:48:48;;;;;;;31.33;5.57;;;;;;;;;;5114685;28;20097;-73
2022/01/27 09:53:55;;;;;;;29.95;5.53;;;8.70;99.90;;;;;;5114511;28;20053;-74
2022/01/27 09:56:23;;;;;;;37.38;5.88;;;8.50;99.90;;;;;;5114399;28;20061;-74
2022/01/27 09:58:49;;;;;;;33.08;4.90;;;;;;;;;;5114525;28;20484;-74
2022/01/27 10:01:15;;;;;;;29.98;5.45;;;;;;;;;;5114559;28;20088;-73
2022/01/27 10:03:53;;;;;;;31.30;5.53;;;8.70;99.90;;;;;;5114578;28;20035;-74
2022/01/27 10:06:21;;;;;;;19.00;5.47;;;;;;;;;;5114348;28;20050;-75
2022/01/27 10:09:11;;;;;;;39.72;6.22;;;8.80;99.90;;;;;;5113209;28;20612;-73
2022/01/27 10:11:37;;;;;;;34.75;5.60;;;;;;;;;;5114385;28;20047;-73
2022/01/27 10:14:27;;;;;;;34.05;7.45;;;8.60;99.90;;;;;;5096996;28;20052;-73
2022/01/27 10:16:55;;;;;;;32.80;5.82;;;8.60;99.90;;;;;;5114116;28;20031;-73
2022/01/27 10:19:22;;;;;;;33.42;5.93;;;;;;;;;;5114025;28;20071;-73
2022/01/27 10:21:49;;;;;;;29.42;5.43;;;;;;;;;;5114270;28;20035;-73
2022/01/27 10:24:24;;;;;;;43.08;6.22;;;8.10;99.90;;;;;;5114107;28;20039;-73
2022/01/27 10:27:28;;;;;;;32.88;5.82;;;8.90;99.90;;;;;;5113941;28;20043;-74
2022/01/27 10:32:43;;;;;;;29.25;6.18;;;8.80;99.90;;;;;;5113676;28;20544;-74
2022/01/27 10:35:12;;;;;;;32.88;5.45;;;9.00;99.90;;;;;;5113767;28;20050;-74
2022/01/27 10:37:58;;;;;;;35.03;5.72;;;8.80;99.90;;;;;;5113622;28;20039;-74
2022/01/27 10:40:33;;;;;;;40.03;5.85;;;8.90;99.90;;;;;;5112395;28;20035;-74
2022/01/27 10:43:02;;;;;;;34.78;4.82;;;;;;;;;;5112812;28;20135;-73
2022/01/27 10:45:29;;;;;;;35.55;4.93;;;;;;;;;;5096390;28;20479;-74
2022/01/27 10:48:13;;;;;;;22.60;4.43;;;;;;;;;;5113501;28;20043;-74
2022/01/27 10:51:03;;;;;;;30.27;4.85;;;9.10;99.90;;;;;;5096353;28;20041;-73
2022/01/27 10:53:42;;;;;;;32.22;4.97;;;;;;;;;;5096389;28;20047;-74
2022/01/27 10:56:08;;;;;;;26.25;4.82;;;;;;;;;;5113575;28;20036;-74
2022/01/27 10:58:34;;;;;;;33.63;5.10;;;;;;;;;;5113267;28;20039;-74
2022/01/27 11:01:01;;;;;;;32.10;5.30;;;;;;;;;;5105893;28;20031;-73
2022/01/27 11:03:27;;;;;;;29.35;5.63;;;9.00;99.90;;;;;;5093111;28;20460;-74
2022/01/27 11:05:56;;;;;;;30.95;4.90;;;;;;;;;;5096918;28;20054;-74
2022/01/27 11:08:24;;;;;;;37.60;4.82;;;;;;;;;;5089123;28;20040;-75
2022/01/27 11:10:50;;;;;;;43.30;5.20;;;9.00;99.90;;;;;;5102053;28;20044;-79
2022/01/27 11:13:19;;;;;;;34.20;5.05;;;8.90;99.90;;;;;;5112844;28;20506;-79
2022/01/27 11:15:45;;;;;;;38.85;4.60;;;9.20;99.90;;;;;;5110967;28;20100;-79
2022/01/27 11:18:13;;;;;;;29.45;4.88;;;8.90;99.90;;;;;;5092527;28;20039;-74
2022/01/27 11:21:06;;;;;;;44.85;5.80;;;;;;;;;;5099247;28;20050;-73
2022/01/27 11:26:13;;;;;;;29.80;4.82;;;8.30;99.90;;;;;;5097107;28;20079;-74
2022/01/27 11:28:45;;;;;;;38.97;6.03;;;9.20;99.90;;;;;;5108639;28;20192;-74
2022/01/27 11:31:36;;;;;;;42.78;6.13;;;9.00;99.90;;;;;;5096303;28;20078;-74
2022/01/27 11:34:04;;;;;;;35.00;5.28;;;9.30;99.90;;;;;;5077847;28;20111;-74
2022/01/27 11:36:30;;;;;;;32.05;4.53;;;;;;;;;;5104357;28;20119;-74
2022/01/27 11:38:58;;;;;;;36.60;5.65;;;9.30;99.90;;;;;;5092650;28;20036;-74
2022/01/27 11:41:49;;;;;;;32.65;4.28;;;9.50;99.90;;;;;;5094525;28;20031;-74
2022/01/27 11:44:26;;;;;;;34.22;4.47;;;9.50;99.90;;;;;;5102131;28;20143;-74
2022/01/27 11:47:08;;;;;;;42.83;6.45;;;;;;;;;;5078940;28;20118;-74
2022/01/27 11:49:57;;;;;;;29.55;4.57;;;9.00;99.90;;;;;;5091827;28;20067;-74
2022/01/27 11:52:34;;;;;;;33.10;4.85;;;9.30;99.90;;;;;;5105439;28;20094;-74
2022/01/27 11:55:25;;;;;;;34.70;5.07;;;9.20;99.90;;;;;;5100552;28;20496;-74
2022/01/27 11:57:54;;;;;;;39.08;5.90;;;9.00;99.90;;;;;;5105438;28;20391;-74
2022/01/27 12:00:30;;;;;;;30.70;4.13;;;9.20;99.90;;;;;;5107953;28;20027;-75
2022/01/27 12:03:03;;;;;;;28.55;5.15;;;;;;;;;;5103724;28;20039;-74
2022/01/27 12:05:34;;;;;;;40.33;4.70;;;9.40;99.90;;;;;;5102782;28;20032;-74
2022/01/27 12:08:15;;;;;;;25.35;4.03;;;9.20;99.90;;;;;;5099279;28;20431;-74
2022/01/27 12:10:52;;;;;;;35.97;4.57;;;9.20;99.90;;;;;;5093340;28;20054;-74
2022/01/27 12:13:36;;;;;;;34.60;5.45;;;9.20;99.90;;;;;;5079657;28;20110;-78
2022/01/27 12:19:02;;;;;;;32.90;4.75;;;;;;;;;;5104439;28;20052;-74
2022/01/27 12:21:37;;;;;;;27.50;4.03;;;;;;;;;;5078516;28;20122;-74
2022/01/27 12:24:23;;;;;;;34.78;5.10;;;9.00;99.90;;;;;;5095429;28;20039;-74
2022/01/27 12:27:04;;;;;;;42.00;5.50;;;9.30;99.90;;;;;;5111414;28;20039;-75
2022/01/27 12:29:41;;;;;;;29.30;4.07;;;9.30;99.90;;;;;;5111525;28;20043;-75
2022/01/27 12:32:23;;;;;;;35.42;4.75;;;9.10;99.90;;;;;;5110998;28;20104;-75
2022/01/27 12:35:00;;;;;;;37.83;4.47;;;9.20;99.90;;;;;;5095131;28;20177;-75
2022/01/27 12:37:34;;;;;;;34.75;5.13;;;9.40;99.90;;;;;;5112301;28;20503;-75
2022/01/27 12:40:03;;;;;;;33.35;4.32;;;9.30;99.90;;;;;;5112069;28;20047;-75
2022/01/27 12:42:35;;;;;;;31.63;4.25;;;;;;;;;;5095133;28;20177;-75
2022/01/27 12:45:14;;;;;;;42.95;4.60;;;9.30;99.90;;;;;;5111962;28;20052;-75
2022/01/27 12:47:47;;;;;;;44.08;5.38;;;9.30;99.90;;;;;;5095326;28;20043;-75
2022/01/27 12:50:18;;;;;;;42.88;4.70;;;9.40;99.90;;;;;;5112012;28;20043;-75
2022/01/27 12:52:47;;;;;;;37.28;4.75;;;9.40;99.90;;;;;;5094936;28;20514;-75
2022/01/27 12:55:18;;;;;;;36.70;4.53;;;10.10;99.90;;;;;;5113298;28;20111;-75
2022/01/27 12:57:53;;;;;;;29.10;4.10;;;9.20;99.90;;;;;;5115626;28;20035;-75
2022/01/27 13:00:18;;;;;;;24.25;4.07;;;10.30;99.90;;;;;;5115574;28;20050;-75
2022/01/27 13:02:44;;;;;;;40.13;4.30;;;9.30;99.90;;;;;;5115592;28;20044;-75
2022/01/27 13:05:10;;;;;;;25.42;3.22;;;;;;;;;;5098699;28;20035;-75
2022/01/27 13:07:37;;;;;;;38.90;5.25;;;;;;;;;;5115456;28;20039;-75
2022/01/27 13:10:08;;;;;;;28.15;4.07;;;;;;;;;;5115736;28;20066;-74
2022/01/27 13:12:41;;;;;;;27.48;3.40;;;;;;;;;;5098172;28;20044;-75
2022/01/27 13:15:12;;;;;;;30.15;4.97;;;9.50;99.90;;;;;;5115181;28;20491;-75
2022/01/27 13:17:57;;;;;;;33.38;4.63;;;9.70;99.90;;;;;;5115268;28;20456;-75
2022/01/27 13:20:35;;;;;;;40.83;4.35;;;9.90;99.90;;;;;;5115388;28;20043;-74
2022/01/27 13:23:06;;;;;;;37.95;4.15;;;9.40;99.90;;;;;;5115435;28;20061;-75
2022/01/27 13:25:42;;;;;;;38.05;4.55;;;9.50;99.90;;;;;;5115307;28;20047;-75
2022/01/27 13:28:20;;;;;;;33.45;4.30;;;8.60;99.90;;;;;;5114979;28;20040;-75
2022/01/27 13:30:46;;;;;;;36.17;3.78;;;;;;;;;;5114916;28;20043;-75
2022/01/27 13:33:15;;;;;;;29.48;3.83;;;9.40;99.90;;;;;;5115031;28;20043;-74
2022/01/27 13:35:41;;;;;;;29.17;4.38;;;;;;;;;;5114901;28;20032;-75
2022/01/27 13:38:08;;;;;;;32.53;4.20;;;;;;;;;;5114846;28;20039;-75
2022/01/27 13:43:20;;;;;;;27.73;3.50;;;8.50;99.90;;;;;;5114634;28;20446;-75
2022/01/27 13:45:47;;;;;;;38.67;5.68;;;;;;;;;;5114871;28;20103;-75
2022/01/27 13:48:20;;;;;;;33.28;3.75;;;;;;;;;;5114780;28;20054;-75
2022/01/27 13:51:00;;;;;;;35.55;4.82;;;9.50;99.90;;;;;;5097682;28;20054;-75
2022/01/27 13:53:26;;;;;;;36.92;4.60;;;9.70;99.90;;;;;;5097545;28;20051;-75
2022/01/27 13:56:04;;;;;;;30.33;4.15;;;9.00;99.90;;;;;;5114526;28;20043;-75
2022/01/27 13:58:30;;;;;;;30.67;3.67;;;;;;;;;;5114540;28;20085;-75
2022/01/27 14:01:09;;;;;;;38.33;4.28;;;9.20;99.90;;;;;;5114404;28;20084;-75
2022/01/27 14:03:45;;;;;;;32.33;4.55;;;9.70;99.90;;;;;;5114623;28;20104;-75
2022/01/27 14:06:12;;;;;;;34.35;5.43;;;9.40;99.90;;;;;;5113846;28;20040;-75
2022/01/27 14:08:40;;;;;;;36.35;4.97;;;;;;;;;;5114020;28;20043;-75
2022/01/27 14:11:07;;;;;;;30.15;3.45;;;;;;;;;;5097274;28;20078;-74
2022/01/27 14:13:34;;;;;;;35.17;4.15;;;;;;;;;;5114211;28;20054;-74
2022/01/27 14:16:00;;;;;;;36.38;4.47;;;;;;;;;;5097536;28;20039;-74
2022/01/27 14:18:44;;;;;;;33.15;3.25;;;9.50;99.90;;;;;;5114096;28;20047;-75
2022/01/27 14:21:10;;;;;;;29.52;4.95;;;;;;;;;;5097444;28;20483;-75
2022/01/27 14:26:42;;;;;;;31.33;3.92;;;;;;;;;;5114096;28;20484;-75
2022/01/27 14:29:12;;;;;;;29.63;4.32;;;9.20;99.90;;;;;;5113228;28;20047;-75
2022/01/27 14:31:47;;;;;;;28.92;3.17;;;9.00;99.90;;;;;;5113782;28;20048;-75
2022/01/27 14:34:29;;;;;;;30.48;3.95;;;9.20;99.90;;;;;;5113843;28;20039;-74
2022/01/27 14:36:55;;;;;;;23.92;3.92;;;;;;;;;;5096016;28;20096;-74
2022/01/27 14:39:21;;;;;;;34.28;4.60;;;;;;;;;;5112585;28;20039;-75
2022/01/27 14:41:47;;;;;;;29.10;3.42;;;;;;;;;;5113646;28;20038;-75
2022/01/27 14:44:13;;;;;;;29.92;3.50;;;10.00;99.90;;;;;;5113336;28;20159;-75
2022/01/27 14:46:42;;;;;;;33.85;3.88;;;;;;;;;;5113577;28;20039;-74
2022/01/27 14:49:10;;;;;;;39.22;5.32;;;;;;;;;;5113453;28;20047;-74
2022/01/27 14:51:36;;;;;;;23.02;4.10;;;;;;;;;;5113626;28;20046;-75
2022/01/27 14:54:03;;;;;;;25.20;4.03;;;9.10;99.90;;;;;;5113528;28;20040;-75
2022/01/27 14:56:29;;;;;;;32.83;4.95;;;;;;;;;;5113742;28;20112;-75
2022/01/27 14:58:55;;;;;;;30.75;3.95;;;;;;;;;;5113382;28;20043;-75
2022/01/27 15:01:22;;;;;;;29.00;4.95;;;;;;;;;;5113304;28;20036;-75
2022/01/27 15:03:48;;;;;;;28.20;3.63;;;;;;;;;;5113239;28;20499;-75
2022/01/27 15:06:14;;;;;;;34.30;4.43;;;;;;;;;;5079741;28;20043;-75
2022/01/27 15:08:40;;;;;;;35.60;4.20;;;;;;;;;;5096419;28;20048;-75
2022/01/27 15:11:06;;;;;;;31.90;3.80;;;;;;;;;;5113230;28;20043;-75